Terminal Aerodrome Forecast
Issued by NWS Sioux Falls, SD

Home | Current Version | Previous Version | Graphics & Text | Print | Product List | Glossary Off
Versions: 1 2 3 4 5 6 7 8 9 10 11 12 13 14 15 16

000
FTUS43 KFSD 211733 AAB
TAFFSD
TAF AMD
KFSD 211733Z 2118/2218 30018G26KT P6SM SCT020 BKN035
     FM212100 31017G25KT P6SM SCT050
     FM220200 22006KT P6SM SCT150
     FM221500 27006KT P6SM SCT100
     FM221700 28007KT P6SM BKN100=

USA.gov is the U.S. government's official web portal to all federal, state and local government web resources and services.